createdAt,value
2018-12-13T00:00:32.485Z,96.20
2018-12-13T00:03:02.282Z,96.20
2018-12-13T00:05:32.146Z,96.20
2018-12-13T00:08:00.005Z,96.20
2018-12-13T00:10:27.902Z,96.30
2018-12-13T00:12:57.480Z,96.30
2018-12-13T00:15:30.054Z,96.30
2018-12-13T00:17:57.541Z,96.30
2018-12-13T00:20:25.670Z,96.60
2018-12-13T00:22:53.509Z,96.40
2018-12-13T00:25:21.113Z,96.40
2018-12-13T00:27:48.782Z,96.40
2018-12-13T00:30:16.589Z,96.40
2018-12-13T00:32:44.076Z,96.40
2018-12-13T00:35:11.817Z,96.40
2018-12-13T00:37:39.849Z,96.50
2018-12-13T00:40:07.634Z,96.50
2018-12-13T00:42:35.211Z,96.50
2018-12-13T00:45:02.999Z,96.50
2018-12-13T00:47:31.054Z,96.50
2018-12-13T00:49:58.954Z,96.50
2018-12-13T00:52:26.463Z,96.50
2018-12-13T00:54:53.925Z,96.50
2018-12-13T00:57:21.759Z,96.50
2018-12-13T00:59:49.245Z,96.80
2018-12-13T01:02:16.732Z,96.50
2018-12-13T01:04:44.687Z,96.50
2018-12-13T01:07:12.454Z,96.60
2018-12-13T01:09:40.122Z,96.50
2018-12-13T01:12:07.682Z,96.50
2018-12-13T01:14:35.357Z,96.50
2018-12-13T01:17:03.123Z,96.50
2018-12-13T01:19:30.719Z,96.80
2018-12-13T01:21:58.379Z,96.50
2018-12-13T01:24:26.023Z,96.50
2018-12-13T01:26:53.533Z,96.50
2018-12-13T01:29:21.042Z,96.50
2018-12-13T01:31:48.881Z,96.40
2018-12-13T01:34:16.463Z,96.40
2018-12-13T01:36:44.333Z,96.40
2018-12-13T01:39:11.892Z,96.30
2018-12-13T01:41:39.605Z,96.20
2018-12-13T01:44:07.379Z,96.20
2018-12-13T01:46:41.917Z,96.10
2018-12-13T01:49:09.386Z,96.10
2018-12-13T01:51:38.124Z,96.10
2018-12-13T01:54:05.736Z,96.10
2018-12-13T01:56:33.344Z,96.10
2018-12-13T01:59:00.948Z,96.10
2018-12-13T02:01:28.493Z,96.10
2018-12-13T02:03:56.440Z,96.10
2018-12-13T02:06:24.090Z,96.10
2018-12-13T02:08:51.909Z,96.10
2018-12-13T02:11:19.659Z,96.00
2018-12-13T02:13:47.252Z,96.00
2018-12-13T02:16:14.787Z,95.90
2018-12-13T02:18:42.518Z,95.90
2018-12-13T02:21:10.325Z,95.90
2018-12-13T02:23:38.034Z,95.90
2018-12-13T02:26:05.850Z,95.80
2018-12-13T02:28:33.469Z,95.90
2018-12-13T02:31:01.057Z,95.80
2018-12-13T02:33:28.686Z,95.80
2018-12-13T02:35:56.197Z,95.80
2018-12-13T02:38:23.794Z,96.10
2018-12-13T02:40:51.361Z,95.80
2018-12-13T02:43:18.857Z,95.80
2018-12-13T02:45:46.540Z,95.80
2018-12-13T02:48:14.616Z,95.80
2018-12-13T02:50:42.250Z,95.80
2018-12-13T02:53:09.921Z,95.80
2018-12-13T02:55:37.536Z,95.80
2018-12-13T02:58:05.256Z,95.80
2018-12-13T03:00:32.908Z,95.80
2018-12-13T03:03:00.673Z,95.80
2018-12-13T03:05:28.333Z,95.80
2018-12-13T03:07:55.813Z,95.80
2018-12-13T03:10:23.348Z,95.80
2018-12-13T03:12:50.858Z,95.70
2018-12-13T03:15:18.518Z,95.70
2018-12-13T03:17:46.136Z,95.70
2018-12-13T03:20:13.768Z,95.70
2018-12-13T03:22:41.362Z,95.70
2018-12-13T03:25:08.862Z,95.70
2018-12-13T03:27:36.857Z,95.70
2018-12-13T03:30:05.121Z,95.70
2018-12-13T03:32:32.771Z,95.70
2018-12-13T03:35:00.281Z,95.70
2018-12-13T03:37:27.764Z,95.70
2018-12-13T03:39:55.445Z,95.60
2018-12-13T03:42:22.916Z,95.60
2018-12-13T03:44:50.413Z,95.70
2018-12-13T03:47:17.911Z,95.60
2018-12-13T03:49:45.530Z,95.70
2018-12-13T03:52:13.238Z,95.70
2018-12-13T03:54:40.696Z,95.70
2018-12-13T03:57:09.067Z,95.70
2018-12-13T03:59:36.725Z,95.70
2018-12-13T04:02:04.439Z,95.70
2018-12-13T04:04:32.041Z,95.70
2018-12-13T04:06:59.523Z,95.70
2018-12-13T04:09:27.041Z,95.70
2018-12-13T04:11:54.631Z,95.70
2018-12-13T04:14:22.241Z,95.60
2018-12-13T04:16:49.946Z,95.60
2018-12-13T04:19:17.598Z,95.60
2018-12-13T04:21:45.081Z,95.60
2018-12-13T04:24:12.765Z,95.60
2018-12-13T04:26:40.242Z,95.60
2018-12-13T04:29:07.871Z,95.60
2018-12-13T04:31:35.373Z,95.50
2018-12-13T04:34:02.851Z,95.50
2018-12-13T04:36:30.427Z,95.50
2018-12-13T04:38:57.957Z,95.50
2018-12-13T04:41:25.557Z,95.40
2018-12-13T04:43:53.071Z,95.50
2018-12-13T04:46:20.878Z,95.50
2018-12-13T04:48:48.388Z,95.40
2018-12-13T04:51:15.955Z,95.40
2018-12-13T04:53:43.851Z,95.40
2018-12-13T04:56:12.635Z,95.40
2018-12-13T04:58:40.418Z,95.40
2018-12-13T05:01:07.949Z,95.30
2018-12-13T05:03:39.389Z,95.50
2018-12-13T05:06:08.394Z,95.30
2018-12-13T05:08:35.924Z,95.30
2018-12-13T05:11:03.424Z,95.30
2018-12-13T05:13:31.222Z,95.20
2018-12-13T05:15:58.837Z,95.10
2018-12-13T05:18:26.296Z,95.10
2018-12-13T05:20:54.097Z,95.00
2018-12-13T05:23:21.604Z,95.10
2018-12-13T05:25:51.129Z,95.00
2018-12-13T05:28:18.724Z,95.00
2018-12-13T05:30:46.229Z,95.00
2018-12-13T05:33:14.000Z,95.00
2018-12-13T05:35:42.731Z,95.00
2018-12-13T05:38:10.365Z,95.30
2018-12-13T05:40:37.853Z,95.00
2018-12-13T05:43:05.556Z,95.00
2018-12-13T05:45:33.268Z,95.00
2018-12-13T05:48:00.738Z,95.10
2018-12-13T05:50:28.339Z,95.00
2018-12-13T05:52:55.981Z,95.00
2018-12-13T05:55:23.479Z,95.00
2018-12-13T05:57:50.977Z,95.00
2018-12-13T06:00:18.637Z,95.30
2018-12-13T06:02:46.678Z,95.00
2018-12-13T06:05:14.598Z,95.30
2018-12-13T06:07:42.144Z,95.00
2018-12-13T06:10:10.027Z,95.30
2018-12-13T06:12:37.666Z,95.00
2018-12-13T06:15:06.016Z,95.00
2018-12-13T06:17:33.768Z,95.10
2018-12-13T06:20:01.390Z,95.00
2018-12-13T06:22:29.090Z,95.10
2018-12-13T06:24:56.737Z,95.10
2018-12-13T06:27:24.242Z,95.10
2018-12-13T06:29:51.861Z,95.10
2018-12-13T06:32:19.509Z,95.10
2018-12-13T06:34:47.009Z,95.10
2018-12-13T06:37:14.875Z,95.10
2018-12-13T06:39:42.391Z,95.10
2018-12-13T06:42:11.820Z,95.10
2018-12-13T06:44:39.728Z,95.10
2018-12-13T06:47:07.557Z,95.10
2018-12-13T06:49:35.082Z,95.10
2018-12-13T06:52:02.589Z,95.10
2018-12-13T06:54:30.610Z,95.10
2018-12-13T06:56:58.149Z,95.10
2018-12-13T06:59:25.741Z,95.10
2018-12-13T07:01:53.362Z,95.10
2018-12-13T07:04:21.030Z,95.10
2018-12-13T07:06:48.664Z,95.10
2018-12-13T07:09:16.137Z,95.10
2018-12-13T07:11:43.684Z,95.10
2018-12-13T07:14:11.385Z,95.10
2018-12-13T07:16:38.965Z,95.00
2018-12-13T07:19:06.653Z,95.00
2018-12-13T07:21:34.637Z,95.00
2018-12-13T07:24:02.171Z,95.00
2018-12-13T07:26:29.908Z,95.00
2018-12-13T07:28:57.633Z,95.00
2018-12-13T07:31:25.123Z,95.00
2018-12-13T07:33:53.253Z,94.90
2018-12-13T07:36:20.833Z,94.90
2018-12-13T07:38:48.587Z,94.90
2018-12-13T07:41:16.137Z,94.90
2018-12-13T07:43:43.640Z,94.90
2018-12-13T07:46:11.794Z,94.90
2018-12-13T07:48:39.250Z,95.20
2018-12-13T07:51:07.022Z,94.90
2018-12-13T07:53:34.653Z,95.00
2018-12-13T07:56:02.160Z,94.80
2018-12-13T07:58:29.861Z,94.80
2018-12-13T08:00:57.466Z,94.80
2018-12-13T08:03:25.137Z,94.70
2018-12-13T08:05:52.698Z,94.70
2018-12-13T08:08:21.011Z,94.70
2018-12-13T08:10:48.709Z,94.60
2018-12-13T08:13:16.407Z,94.60
2018-12-13T08:15:43.987Z,94.50
2018-12-13T08:18:11.774Z,94.40
2018-12-13T08:20:41.316Z,94.30
2018-12-13T08:23:08.798Z,94.20
2018-12-13T08:25:36.449Z,94.00
2018-12-13T08:28:04.118Z,94.00
2018-12-13T08:30:31.701Z,93.90
2018-12-13T08:32:59.365Z,93.80
2018-12-13T08:35:26.870Z,93.60
2018-12-13T08:37:54.647Z,93.40
2018-12-13T08:40:22.327Z,93.40
2018-12-13T08:42:49.920Z,93.40
2018-12-13T08:45:17.553Z,93.20
2018-12-13T08:47:45.160Z,93.40
2018-12-13T08:50:12.865Z,93.20
2018-12-13T08:52:40.606Z,93.20
2018-12-13T08:55:08.181Z,93.00
2018-12-13T08:57:35.796Z,93.10
2018-12-13T09:00:04.302Z,93.00
2018-12-13T09:02:33.055Z,93.00
2018-12-13T09:05:00.562Z,92.80
2018-12-13T09:07:28.061Z,92.90
2018-12-13T09:09:55.582Z,92.80
2018-12-13T09:12:23.215Z,92.60
2018-12-13T09:14:50.952Z,92.50
2018-12-13T09:17:18.618Z,92.60
2018-12-13T09:19:46.272Z,92.50
2018-12-13T09:22:13.965Z,92.50
2018-12-13T09:24:41.569Z,92.50
2018-12-13T09:27:09.077Z,92.50
2018-12-13T09:29:36.691Z,92.50
2018-12-13T09:32:04.252Z,92.50
2018-12-13T09:34:31.701Z,92.60
2018-12-13T09:36:59.244Z,92.70
2018-12-13T09:39:27.104Z,92.70
2018-12-13T09:41:54.544Z,92.80
2018-12-13T09:44:22.044Z,92.80
2018-12-13T09:46:49.517Z,93.00
2018-12-13T09:49:17.240Z,92.80
2018-12-13T09:51:44.805Z,92.90
2018-12-13T09:54:12.821Z,92.90
2018-12-13T09:56:40.796Z,92.90
2018-12-13T09:59:08.360Z,92.90
2018-12-13T10:01:35.885Z,92.90
2018-12-13T10:04:04.570Z,92.90
2018-12-13T10:06:32.147Z,93.00
2018-12-13T10:08:59.778Z,93.00
2018-12-13T10:11:27.424Z,93.10
2018-12-13T10:13:54.961Z,93.00
2018-12-13T10:16:22.705Z,92.90
2018-12-13T10:18:50.529Z,92.90
2018-12-13T10:21:18.346Z,93.00
2018-12-13T10:23:46.152Z,93.10
2018-12-13T10:26:13.812Z,93.10
2018-12-13T10:28:41.536Z,93.10
2018-12-13T10:31:09.267Z,93.00
2018-12-13T10:33:36.973Z,93.10
2018-12-13T10:36:04.445Z,93.10
2018-12-13T10:38:32.149Z,93.10
2018-12-13T10:40:59.819Z,93.00
2018-12-13T10:43:27.284Z,93.00
2018-12-13T10:45:54.781Z,93.00
2018-12-13T10:48:22.225Z,92.90
2018-12-13T10:50:49.689Z,92.70
2018-12-13T10:53:17.187Z,92.70
2018-12-13T10:55:44.737Z,92.60
2018-12-13T10:58:12.761Z,92.60
2018-12-13T11:00:46.157Z,92.60
2018-12-13T11:03:22.746Z,92.60
2018-12-13T11:05:50.381Z,92.60
2018-12-13T11:08:18.298Z,92.70
2018-12-13T11:10:46.394Z,92.60
2018-12-13T11:13:13.913Z,92.50
2018-12-13T11:15:41.638Z,92.40
2018-12-13T11:18:09.193Z,92.30
2018-12-13T11:20:36.932Z,92.30
2018-12-13T11:23:04.914Z,92.40
2018-12-13T11:25:32.616Z,92.40
2018-12-13T11:29:10.395Z,92.50
2018-12-13T11:31:37.896Z,92.50
2018-12-13T11:34:05.541Z,92.40
2018-12-13T11:36:33.445Z,92.30
2018-12-13T11:39:05.712Z,92.40
2018-12-13T11:41:32.710Z,92.40
2018-12-13T11:44:00.553Z,92.30
2018-12-13T11:46:28.441Z,92.40
2018-12-13T11:48:55.987Z,92.30
2018-12-13T11:51:23.441Z,92.20
2018-12-13T11:53:51.602Z,92.20
2018-12-13T11:56:19.288Z,92.20
2018-12-13T11:58:46.805Z,92.20
2018-12-13T12:01:14.480Z,92.10
2018-12-13T12:03:41.988Z,92.10
2018-12-13T12:06:09.437Z,92.00
2018-12-13T12:08:36.978Z,92.00
2018-12-13T12:11:05.169Z,91.90
2018-12-13T12:13:32.753Z,91.90
2018-12-13T12:16:00.257Z,91.80
2018-12-13T12:18:27.929Z,91.70
2018-12-13T12:20:55.428Z,91.60
2018-12-13T12:23:22.893Z,91.50
2018-12-13T12:25:50.428Z,91.60
2018-12-13T12:28:18.016Z,91.60
2018-12-13T12:30:45.478Z,91.70
2018-12-13T12:33:13.064Z,91.50
2018-12-13T12:35:41.065Z,91.60
2018-12-13T12:38:08.752Z,91.60
2018-12-13T12:40:36.325Z,91.60
2018-12-13T12:43:03.807Z,91.50
2018-12-13T12:45:31.382Z,91.50
2018-12-13T12:47:59.042Z,91.60
2018-12-13T12:50:26.578Z,91.50
2018-12-13T12:52:54.469Z,91.10
2018-12-13T12:55:22.010Z,91.10
2018-12-13T12:57:49.505Z,91.10
2018-12-13T13:00:17.675Z,91.00
2018-12-13T13:02:45.550Z,90.90
2018-12-13T13:05:13.286Z,90.80
2018-12-13T13:07:40.906Z,90.90
2018-12-13T13:10:08.373Z,90.90
2018-12-13T13:12:35.881Z,90.90
2018-12-13T13:15:03.623Z,90.80
2018-12-13T13:17:31.403Z,90.70
2018-12-13T13:19:59.303Z,91.00
2018-12-13T13:22:26.764Z,90.80
2018-12-13T13:24:54.300Z,90.70
2018-12-13T13:27:21.883Z,90.50
2018-12-13T13:29:49.461Z,90.50
2018-12-13T13:32:16.973Z,90.40
2018-12-13T13:34:44.501Z,90.30
2018-12-13T13:37:12.199Z,90.30
2018-12-13T13:39:39.833Z,90.40
2018-12-13T13:42:07.630Z,90.30
2018-12-13T13:44:35.969Z,90.40
2018-12-13T13:47:03.977Z,90.50
2018-12-13T13:49:32.055Z,90.60
2018-12-13T13:51:59.862Z,90.60
2018-12-13T13:54:27.375Z,90.60
2018-12-13T13:56:54.964Z,90.60
2018-12-13T13:59:22.756Z,90.70
2018-12-13T14:01:50.384Z,90.70
2018-12-13T14:04:17.853Z,90.80
2018-12-13T14:06:45.442Z,91.00
2018-12-13T14:09:12.923Z,90.80
2018-12-13T14:11:40.465Z,90.80
2018-12-13T14:14:07.965Z,90.90
2018-12-13T14:16:35.620Z,90.90
2018-12-13T14:19:03.270Z,90.90
2018-12-13T14:21:31.169Z,91.00
2018-12-13T14:23:58.803Z,91.00
2018-12-13T14:26:26.291Z,90.90
2018-12-13T14:28:53.783Z,91.00
2018-12-13T14:31:21.321Z,91.00
2018-12-13T14:33:48.939Z,91.00
2018-12-13T14:36:17.424Z,91.00
2018-12-13T14:38:45.041Z,91.10
2018-12-13T14:41:14.544Z,91.40
2018-12-13T14:43:48.167Z,91.20
2018-12-13T14:46:15.762Z,91.20
2018-12-13T14:48:43.576Z,91.20
2018-12-13T14:51:11.502Z,91.30
2018-12-13T14:53:38.967Z,91.30
2018-12-13T14:56:06.942Z,91.40
2018-12-13T14:58:34.753Z,91.40
2018-12-13T15:01:02.330Z,91.40
2018-12-13T15:03:31.342Z,91.50
2018-12-13T15:05:59.062Z,91.40
2018-12-13T15:08:26.805Z,91.50
2018-12-13T15:10:57.352Z,91.50
2018-12-13T15:13:24.904Z,91.60
2018-12-13T15:15:52.482Z,91.60
2018-12-13T15:18:19.981Z,91.90
2018-12-13T15:20:47.481Z,91.70
2018-12-13T15:23:15.173Z,91.70
2018-12-13T15:25:42.653Z,91.70
2018-12-13T15:28:10.357Z,91.80
2018-12-13T15:30:37.978Z,91.80
2018-12-13T15:33:05.668Z,91.90
2018-12-13T15:35:33.148Z,91.90
2018-12-13T15:38:00.962Z,91.90
2018-12-13T15:40:28.563Z,92.00
2018-12-13T15:42:56.295Z,92.00
2018-12-13T15:45:24.319Z,92.00
2018-12-13T15:47:51.826Z,92.00
2018-12-13T15:50:19.423Z,92.10
2018-12-13T15:52:46.940Z,92.10
2018-12-13T15:55:14.470Z,92.10
2018-12-13T15:57:42.021Z,92.20
2018-12-13T16:00:09.880Z,92.10
2018-12-13T16:02:39.493Z,92.20
2018-12-13T16:05:07.668Z,92.20
2018-12-13T16:07:35.315Z,92.20
2018-12-13T16:10:03.998Z,92.30
2018-12-13T16:12:32.071Z,92.30
2018-12-13T16:14:59.570Z,92.30
2018-12-13T16:17:27.294Z,92.40
2018-12-13T16:19:54.901Z,92.30
2018-12-13T16:22:22.365Z,92.40
2018-12-13T16:24:50.214Z,92.40
2018-12-13T16:27:17.930Z,92.40
2018-12-13T16:29:45.705Z,92.40
2018-12-13T16:32:13.856Z,92.40
2018-12-13T16:34:41.381Z,92.50
2018-12-13T16:37:09.039Z,92.50
2018-12-13T16:39:36.581Z,92.50
2018-12-13T16:42:04.387Z,92.50
2018-12-13T16:44:31.937Z,92.50
2018-12-13T16:46:59.659Z,92.60
2018-12-13T16:49:27.132Z,92.60
2018-12-13T16:51:55.077Z,92.60
2018-12-13T16:54:22.593Z,92.60
2018-12-13T16:56:50.250Z,92.60
2018-12-13T16:59:17.775Z,92.60
2018-12-13T17:01:45.301Z,92.60
2018-12-13T17:04:13.357Z,92.70
2018-12-13T17:06:40.848Z,92.70
2018-12-13T17:09:08.485Z,92.90
2018-12-13T17:11:36.177Z,92.70
2018-12-13T17:14:03.913Z,92.70
2018-12-13T17:16:31.448Z,92.80
2018-12-13T17:18:58.995Z,92.80
2018-12-13T17:21:26.476Z,92.80
2018-12-13T17:23:54.317Z,92.80
2018-12-13T17:26:22.009Z,92.90
2018-12-13T17:28:49.538Z,92.90
2018-12-13T17:31:17.046Z,92.90
2018-12-13T17:33:44.623Z,92.90
2018-12-13T17:36:12.673Z,93.00
2018-12-13T17:38:40.213Z,93.00
2018-12-13T17:41:07.844Z,93.00
2018-12-13T17:43:35.469Z,93.10
2018-12-13T17:46:02.965Z,93.20
2018-12-13T17:48:30.553Z,93.20
2018-12-13T17:50:58.104Z,93.50
2018-12-13T17:53:26.001Z,93.40
2018-12-13T17:55:53.745Z,93.40
2018-12-13T17:58:21.397Z,93.70
2018-12-13T18:00:48.938Z,93.70
2018-12-13T18:03:16.546Z,93.50
2018-12-13T18:05:46.910Z,93.50
2018-12-13T18:08:15.773Z,93.50
2018-12-13T18:10:43.240Z,93.50
2018-12-13T18:13:11.566Z,93.60
2018-12-13T18:15:39.083Z,93.50
2018-12-13T18:18:06.577Z,93.60
2018-12-13T18:20:34.131Z,93.60
2018-12-13T18:23:01.604Z,93.60
2018-12-13T18:25:30.383Z,93.60
2018-12-13T18:27:58.387Z,93.60
2018-12-13T18:30:25.921Z,93.60
2018-12-13T18:32:53.418Z,93.70
2018-12-13T18:35:21.029Z,93.70
2018-12-13T18:37:48.554Z,93.70
2018-12-13T18:40:16.090Z,93.70
2018-12-13T18:42:43.850Z,93.70
2018-12-13T18:45:11.460Z,94.00
2018-12-13T18:47:39.097Z,93.70
2018-12-13T18:50:07.014Z,93.70
2018-12-13T18:52:36.462Z,93.80
2018-12-13T18:55:04.661Z,93.70
2018-12-13T18:57:32.389Z,93.80
2018-12-13T18:59:59.961Z,93.80
2018-12-13T19:02:27.469Z,93.80
2018-12-13T19:04:55.456Z,93.80
2018-12-13T19:07:23.138Z,93.80
2018-12-13T19:09:50.881Z,93.80
2018-12-13T19:12:18.533Z,93.80
2018-12-13T19:14:46.166Z,93.80
2018-12-13T19:17:13.739Z,93.80
2018-12-13T19:19:41.322Z,93.80
2018-12-13T19:22:08.925Z,94.10
2018-12-13T19:24:36.896Z,93.80
2018-12-13T19:27:04.424Z,93.80
2018-12-13T19:29:32.092Z,93.80
2018-12-13T19:31:59.779Z,93.80
2018-12-13T19:34:28.326Z,93.80
2018-12-13T19:36:56.808Z,93.80
2018-12-13T19:39:24.525Z,93.80
2018-12-13T19:41:52.148Z,93.80
2018-12-13T19:44:19.677Z,93.80
2018-12-13T19:46:47.563Z,93.80
2018-12-13T19:49:15.561Z,93.90
2018-12-13T19:51:43.263Z,94.20
2018-12-13T19:54:10.958Z,93.90
2018-12-13T19:56:38.493Z,93.90
2018-12-13T19:59:06.070Z,93.80
2018-12-13T20:01:33.612Z,93.90
2018-12-13T20:04:06.590Z,93.90
2018-12-13T20:06:34.400Z,93.90
2018-12-13T20:09:03.619Z,93.90
2018-12-13T20:11:33.918Z,94.20
2018-12-13T20:14:01.704Z,93.90
2018-12-13T20:16:29.385Z,93.90
2018-12-13T20:18:56.901Z,93.90
2018-12-13T20:21:24.529Z,94.10
2018-12-13T20:23:52.164Z,94.00
2018-12-13T20:26:19.969Z,94.00
2018-12-13T20:28:47.437Z,94.00
2018-12-13T20:31:14.913Z,94.00
2018-12-13T20:33:42.987Z,94.10
2018-12-13T20:36:10.527Z,94.10
2018-12-13T20:38:38.041Z,94.30
2018-12-13T20:41:05.655Z,94.10
2018-12-13T20:43:33.453Z,94.10
2018-12-13T20:46:01.190Z,94.10
2018-12-13T20:48:28.740Z,94.10
2018-12-13T20:50:56.735Z,94.10
2018-12-13T20:53:24.295Z,94.10
2018-12-13T20:55:52.547Z,94.20
2018-12-13T20:58:20.282Z,94.10
2018-12-13T21:00:47.885Z,94.10
2018-12-13T21:03:15.541Z,94.10
2018-12-13T21:05:43.044Z,94.10
2018-12-13T21:08:11.005Z,94.10
2018-12-13T21:10:39.193Z,94.10
2018-12-13T21:13:06.958Z,94.20
2018-12-13T21:15:34.620Z,94.20
2018-12-13T21:18:02.368Z,94.20
2018-12-13T21:20:29.934Z,94.20
2018-12-13T21:22:57.577Z,94.20
2018-12-13T21:25:25.433Z,94.20
2018-12-13T21:27:53.171Z,94.20
2018-12-13T21:30:21.141Z,94.20
2018-12-13T21:32:48.734Z,94.20
2018-12-13T21:35:16.435Z,94.20
2018-12-13T21:37:44.218Z,94.20
2018-12-13T21:40:11.894Z,94.20
2018-12-13T21:42:39.419Z,94.20
2018-12-13T21:45:07.380Z,94.30
2018-12-13T21:47:34.898Z,94.20
2018-12-13T21:50:02.694Z,94.30
2018-12-13T21:52:30.590Z,94.20
2018-12-13T21:54:58.338Z,94.20
2018-12-13T21:57:26.483Z,94.20
2018-12-13T21:59:54.469Z,94.20
2018-12-13T22:02:22.415Z,94.20
2018-12-13T22:04:50.094Z,94.20
2018-12-13T22:07:17.585Z,94.20
2018-12-13T22:09:45.193Z,94.20
2018-12-13T22:12:13.151Z,94.20
2018-12-13T22:14:40.697Z,94.20
2018-12-13T22:17:08.665Z,94.10
2018-12-13T22:19:36.199Z,94.20
2018-12-13T22:22:03.673Z,94.20
2018-12-13T22:24:31.802Z,94.20
2018-12-13T22:26:59.315Z,94.20
2018-12-13T22:29:26.760Z,94.10
2018-12-13T22:31:54.572Z,94.10
2018-12-13T22:34:22.213Z,94.10
2018-12-13T22:36:49.997Z,94.10
2018-12-13T22:39:17.437Z,94.10
2018-12-13T22:41:45.454Z,94.10
2018-12-13T22:44:14.235Z,94.10
2018-12-13T22:46:41.975Z,94.10
2018-12-13T22:49:09.464Z,94.00
2018-12-13T22:51:36.960Z,94.10
2018-12-13T22:54:04.691Z,94.10
2018-12-13T22:56:32.373Z,94.10
2018-12-13T22:59:00.073Z,94.00
2018-12-13T23:01:27.710Z,94.10
2018-12-13T23:03:55.437Z,94.00
2018-12-13T23:06:23.141Z,94.00
2018-12-13T23:08:50.825Z,94.10
2018-12-13T23:11:18.450Z,94.00
2018-12-13T23:13:46.017Z,94.00
2018-12-13T23:16:13.517Z,94.10
2018-12-13T23:18:41.011Z,94.10
2018-12-13T23:21:08.517Z,94.10
2018-12-13T23:23:36.180Z,94.10
2018-12-13T23:26:03.977Z,94.10
2018-12-13T23:28:31.496Z,94.10
2018-12-13T23:30:59.307Z,94.00
2018-12-13T23:33:27.289Z,94.10
2018-12-13T23:35:54.758Z,94.20
2018-12-13T23:38:22.461Z,94.30
2018-12-13T23:40:50.090Z,94.20
2018-12-13T23:43:20.509Z,94.20
2018-12-13T23:45:48.070Z,94.30
2018-12-13T23:48:15.973Z,94.30
2018-12-13T23:50:43.423Z,94.30
2018-12-13T23:53:10.914Z,94.30
2018-12-13T23:55:38.446Z,94.40
2018-12-13T23:58:05.965Z,94.40
